Time;durP1;ratioP1;P1;durP2;ratioP2;P2;SDS_P1;SDS_P2;PMS_P1;PMS_P2;Temp;Humidity;BMP_temperature;BMP_pressure;BME280_temperature;BME280_humidity;BME280_pressure;Samples;Min_cycle;Max_cycle;Signal;HPM_P1;HPM_P2
2022/08/04 00:00:59;;;;;;;3.38;2.17;;;;;;;;;;5061646;28;20047;-61
2022/08/04 00:03:51;;;;;;;3.05;1.98;;;;;;;;;;5066570;28;20065;-64
2022/08/04 00:06:43;;;;;;;4.60;2.53;;;;;;;;;;5061033;28;20059;-61
2022/08/04 00:09:28;;;;;;;5.35;2.17;;;;;;;;;;5060045;28;20028;-61
2022/08/04 00:12:15;;;;;;;2.78;2.10;;;;;;;;;;5063890;28;20024;-61
2022/08/04 00:15:03;;;;;;;2.90;2.05;;;;;;;;;;5057559;28;20025;-56
2022/08/04 00:17:59;;;;;;;3.35;2.30;;;;;;;;;;5060138;28;20419;-55
2022/08/04 00:20:44;;;;;;;4.28;2.25;;;;;;;;;;5061025;28;20032;-56
2022/08/04 00:23:33;;;;;;;5.55;2.40;;;;;;;;;;5069935;28;20078;-55
2022/08/04 00:26:19;;;;;;;3.90;1.92;;;;;;;;;;5058552;28;20182;-53
2022/08/04 00:29:04;;;;;;;3.10;2.28;;;;;;;;;;5066396;28;20031;-56
2022/08/04 00:31:51;;;;;;;6.15;3.25;;;;;;;;;;5065705;28;20095;-67
2022/08/04 00:34:37;;;;;;;6.28;3.55;;;;;;;;;;5068716;28;20479;-61
2022/08/04 00:37:23;;;;;;;7.75;2.92;;;;;;;;;;5056972;28;20064;-60
2022/08/04 00:40:22;;;;;;;6.82;2.83;;;;;;;;;;5063893;28;20394;-60
2022/08/04 00:43:20;;;;;;;7.88;4.00;;;;;;;;;;5068306;28;20044;-59
2022/08/04 00:46:05;;;;;;;6.80;2.90;;;;;;;;;;5057981;28;20028;-63
2022/08/04 00:48:57;;;;;;;4.95;2.90;;;;;;;;;;5060965;28;20053;-58
2022/08/04 00:51:47;;;;;;;3.13;2.17;;;;;;;;;;5063245;28;20059;-61
2022/08/04 00:54:40;;;;;;;6.43;2.47;;;;;;;;;;5056877;28;20062;-61
2022/08/04 00:57:26;;;;;;;4.80;2.85;;;;;;;;;;5059663;28;20060;-60
2022/08/04 01:00:13;;;;;;;3.05;2.35;;;;;;;;;;5067993;28;20038;-60
2022/08/04 01:03:11;;;;;;;6.75;3.42;;;;;;;;;;5068386;28;20166;-60
2022/08/04 01:06:15;;;;;;;3.78;2.63;;;;;;;;;;5067362;28;20039;-60
2022/08/04 01:09:11;;;;;;;3.08;2.47;;;;;;;;;;5067247;28;20090;-60
2022/08/04 01:11:56;;;;;;;4.50;2.70;;;;;;;;;;5066873;28;20031;-72
2022/08/04 01:14:48;;;;;;;7.75;2.67;;;;;;;;;;5060018;28;20024;-72
2022/08/04 01:17:45;;;;;;;3.05;2.15;;;;;;;;;;5058418;28;20028;-72
2022/08/04 01:20:46;;;;;;;5.05;2.40;;;;;;;;;;5066693;28;20104;-71
2022/08/04 01:23:50;;;;;;;5.93;2.30;;;;;;;;;;5066606;28;20021;-71
2022/08/04 01:26:47;;;;;;;3.90;2.22;;;;;;;;;;5059387;28;20048;-69
2022/08/04 01:29:34;;;;;;;3.53;2.40;;;;;;;;;;5068946;28;20085;-58
2022/08/04 01:32:24;;;;;;;4.20;2.65;;;;;;;;;;5076411;28;20482;-60
2022/08/04 01:35:22;;;;;;;3.40;2.20;;;;;;;;;;5059184;28;20024;-60
2022/08/04 01:38:10;;;;;;;4.03;2.67;;;;;;;;;;5066822;28;20051;-60
2022/08/04 01:40:58;;;;;;;4.70;2.65;;;;;;;;;;5065373;28;20016;-61
2022/08/04 01:43:44;;;;;;;7.85;2.70;;;;;;;;;;5070281;28;20024;-53
2022/08/04 01:46:32;;;;;;;4.13;2.33;;;;;;;;;;5061583;28;20029;-52
2022/08/04 01:49:19;;;;;;;4.22;2.63;;;;;;;;;;5066118;28;20452;-54
2022/08/04 01:52:06;;;;;;;5.05;3.00;;;;;;;;;;5057814;28;20043;-51
2022/08/04 01:54:52;;;;;;;4.05;2.85;;;;;;;;;;5060034;28;20025;-57
2022/08/04 01:57:42;;;;;;;3.63;2.25;;;;;;;;;;5059997;28;20519;-54
2022/08/04 02:00:28;;;;;;;5.30;2.22;;;;;;;;;;5059331;28;20406;-51
2022/08/04 02:03:14;;;;;;;3.60;2.30;;;;;;;;;;5067783;28;20060;-61
2022/08/04 02:06:18;;;;;;;4.07;2.63;;;;;;;;;;5065359;28;20021;-60
2022/08/04 02:09:22;;;;;;;4.88;2.55;;;;;;;;;;5063258;28;20131;-59
2022/08/04 02:12:08;;;;;;;5.00;2.90;;;;;;;;;;5070813;28;20071;-61
2022/08/04 02:14:56;;;;;;;6.05;3.10;;;;;;;;;;5068427;28;20020;-59
2022/08/04 02:17:42;;;;;;;5.07;2.57;;;;;;;;;;5058971;28;20032;-60
2022/08/04 02:20:36;;;;;;;5.72;2.97;;;;;;;;;;5068982;28;20013;-60
2022/08/04 02:23:30;;;;;;;4.93;2.90;;;;;;;;;;5061480;28;20029;-60
2022/08/04 02:26:16;;;;;;;4.03;2.60;;;;;;;;;;5062089;28;20044;-60
2022/08/04 02:29:14;;;;;;;3.38;2.63;;;;;;;;;;5069719;28;20044;-61
2022/08/04 02:32:04;;;;;;;3.58;2.80;;;;;;;;;;5068482;28;20452;-60
2022/08/04 02:34:50;;;;;;;3.45;2.72;;;;;;;;;;5063877;28;20067;-61
2022/08/04 02:37:36;;;;;;;6.28;2.55;;;;;;;;;;5066638;28;20033;-60
2022/08/04 02:40:23;;;;;;;5.95;2.50;;;;;;;;;;5059641;28;20031;-71
2022/08/04 02:43:09;;;;;;;5.00;2.28;;;;;;;;;;5063469;28;20479;-55
2022/08/04 02:45:55;;;;;;;3.78;2.38;;;;;;;;;;5063653;28;20039;-51
2022/08/04 02:48:42;;;;;;;2.78;2.22;;;;;;;;;;5065340;28;20437;-55
2022/08/04 02:51:29;;;;;;;2.97;2.00;;;;;;;;;;5070913;28;20477;-55
2022/08/04 02:54:15;;;;;;;8.20;2.55;;;;;;;;;;5070768;28;20016;-54
2022/08/04 02:57:01;;;;;;;4.18;2.30;;;;;;;;;;5070354;28;20036;-59
2022/08/04 03:00:05;;;;;;;5.57;2.38;;;;;;;;;;5065161;28;20464;-52
2022/08/04 03:03:09;;;;;;;3.20;2.33;;;;;;;;;;5065451;28;20467;-67
2022/08/04 03:05:55;;;;;;;4.80;2.38;;;;;;;;;;5070651;28;20112;-68
2022/08/04 03:08:40;;;;;;;5.78;2.42;;;;;;;;;;5067594;28;20050;-69
2022/08/04 03:11:32;;;;;;;3.35;2.63;;;;;;;;;;5071325;28;20020;-68
2022/08/04 03:14:35;;;;;;;3.63;2.20;;;;;;;;;;5067765;28;20020;-67
2022/08/04 03:17:41;;;;;;;4.15;2.22;;;;;;;;;;5062209;28;20079;-61
2022/08/04 03:20:45;;;;;;;4.10;2.30;;;;;;;;;;5047363;28;20637;-60
2022/08/04 03:23:58;;;;;;;4.65;2.22;;;;;;;;;;5070348;28;20035;-60
2022/08/04 03:27:09;;;;;;;3.03;2.20;;;;;;;;;;5064405;28;20009;-60
2022/08/04 03:30:05;;;;;;;5.00;3.00;;;;;;;;;;5062316;28;20387;-59
2022/08/04 03:33:00;;;;;;;4.22;2.40;;;;;;;;;;5063934;28;20032;-59
2022/08/04 03:35:57;;;;;;;4.82;2.55;;;;;;;;;;5064756;28;20106;-72
2022/08/04 03:39:13;;;;;;;5.47;3.60;;;;;;;;;;5062942;28;20033;-69
2022/08/04 03:41:58;;;;;;;3.33;2.30;;;;;;;;;;5062549;28;20174;-69
2022/08/04 03:45:00;;;;;;;4.95;2.40;;;;;;;;;;5064144;28;20111;-69
2022/08/04 03:48:05;;;;;;;7.75;2.60;;;;;;;;;;5067396;28;20066;-68
2022/08/04 03:54:24;;;;;;;3.88;2.58;;;;;;;;;;5066003;28;20107;-70
2022/08/04 03:57:10;;;;;;;4.47;2.70;;;;;;;;;;5064639;28;20132;-71
2022/08/04 04:00:21;;;;;;;5.05;2.50;;;;;;;;;;5058187;28;20025;-72
2022/08/04 04:03:18;;;;;;;4.07;2.20;;;;;;;;;;5044506;28;20036;-71
2022/08/04 04:06:30;;;;;;;5.93;2.40;;;;;;;;;;5069625;28;20120;-72
2022/08/04 04:09:28;;;;;;;10.48;2.78;;;;;;;;;;5067059;28;20020;-71
2022/08/04 04:12:20;;;;;;;4.82;2.20;;;;;;;;;;5064698;28;20025;-59
2022/08/04 04:15:09;;;;;;;3.65;2.38;;;;;;;;;;5063255;28;20058;-61
2022/08/04 04:18:03;;;;;;;2.67;2.10;;;;;;;;;;5056987;28;20036;-61
2022/08/04 04:20:49;;;;;;;5.28;2.67;;;;;;;;;;5065456;28;20037;-61
2022/08/04 04:23:53;;;;;;;2.92;2.20;;;;;;;;;;5064255;28;20021;-61
2022/08/04 04:26:47;;;;;;;3.03;2.42;;;;;;;;;;5070903;28;20051;-61
2022/08/04 04:29:52;;;;;;;7.75;2.40;;;;;;;;;;5061521;28;20107;-60
2022/08/04 04:32:56;;;;;;;3.00;1.98;;;;;;;;;;5057797;28;20024;-72
2022/08/04 04:35:41;;;;;;;4.90;2.67;;;;;;;;;;5056089;28;20022;-72
2022/08/04 04:38:36;;;;;;;4.07;2.63;;;;;;;;;;5066160;28;20043;-72
2022/08/04 04:41:54;;;;;;;5.40;2.58;;;;;;;;;;5063329;28;20028;-71
2022/08/04 04:44:58;;;;;;;3.22;2.65;;;;;;;;;;5047225;28;20063;-73
2022/08/04 04:47:59;;;;;;;4.43;2.70;;;;;;;;;;5066002;28;20044;-67
2022/08/04 04:51:07;;;;;;;3.78;2.67;;;;;;;;;;5060973;28;20020;-68
2022/08/04 04:53:57;;;;;;;3.70;2.50;;;;;;;;;;5070407;28;20068;-69
2022/08/04 04:56:46;;;;;;;6.43;2.85;;;;;;;;;;5057942;28;20024;-69
2022/08/04 04:59:34;;;;;;;8.03;2.80;;;;;;;;;;5066405;28;20111;-69
2022/08/04 05:02:22;;;;;;;3.83;2.70;;;;;;;;;;5065538;28;20031;-69
2022/08/04 05:05:20;;;;;;;3.42;2.35;;;;;;;;;;5072710;28;20094;-69
2022/08/04 05:08:11;;;;;;;5.10;2.53;;;;;;;;;;5056404;28;20024;-71
2022/08/04 05:10:57;;;;;;;4.38;2.55;;;;;;;;;;5067165;28;20035;-56
2022/08/04 05:13:46;;;;;;;4.10;2.88;;;;;;;;;;5062421;28;20021;-55
2022/08/04 05:16:54;;;;;;;2.70;2.05;;;;;;;;;;5062875;28;20088;-55
2022/08/04 05:19:40;;;;;;;3.97;2.20;;;;;;;;;;5077941;28;20036;-57
2022/08/04 05:22:31;;;;;;;3.08;1.98;;;;;;;;;;5058075;28;20017;-55
2022/08/04 05:25:21;;;;;;;4.22;2.38;;;;;;;;;;5067219;28;20035;-61
2022/08/04 05:28:20;;;;;;;4.10;2.33;;;;;;;;;;5062300;28;20025;-70
2022/08/04 05:31:10;;;;;;;3.90;2.60;;;;;;;;;;5060484;28;20024;-69
2022/08/04 05:33:58;;;;;;;4.30;2.53;;;;;;;;;;5065904;28;20031;-70
2022/08/04 05:36:49;;;;;;;6.72;2.67;;;;;;;;;;5068147;28;20024;-71
2022/08/04 05:39:36;;;;;;;5.43;2.25;;;;;;;;;;5063476;28;20422;-71
2022/08/04 05:42:21;;;;;;;3.72;2.42;;;;;;;;;;5066099;28;20024;-69
2022/08/04 05:45:08;;;;;;;6.38;2.50;;;;;;;;;;5069958;28;20046;-62
2022/08/04 05:47:54;;;;;;;5.03;2.13;;;;;;;;;;5073194;28;20410;-70
2022/08/04 05:50:40;;;;;;;4.03;2.22;;;;;;;;;;5065236;28;20025;-70
2022/08/04 05:53:26;;;;;;;6.00;2.60;;;;;;;;;;5061425;28;20017;-70
2022/08/04 05:56:13;;;;;;;4.53;2.13;;;;;;;;;;5060247;28;20062;-71
2022/08/04 05:59:01;;;;;;;3.65;2.05;;;;;;;;;;5062107;28;20062;-70
2022/08/04 06:01:47;;;;;;;3.97;2.08;;;;;;;;;;5061265;28;20025;-60
2022/08/04 06:04:36;;;;;;;6.38;2.38;;;;;;;;;;5062122;28;20020;-71
2022/08/04 06:07:21;;;;;;;4.55;2.25;;;;;;;;;;5067656;28;20024;-70
2022/08/04 06:10:07;;;;;;;3.65;2.10;;;;;;;;;;5058523;28;20035;-66
2022/08/04 06:12:54;;;;;;;4.45;2.38;;;;;;;;;;5069375;28;20024;-67
2022/08/04 06:15:41;;;;;;;3.65;2.10;;;;;;;;;;5063706;28;20028;-66
2022/08/04 06:18:28;;;;;;;4.28;2.15;;;;;;;;;;5070452;28;20566;-66
2022/08/04 06:21:16;;;;;;;5.45;2.38;;;;;;;;;;5070929;28;20019;-73
2022/08/04 06:24:03;;;;;;;5.18;2.13;;;;;;;;;;5061000;28;20578;-55
2022/08/04 06:26:50;;;;;;;7.40;2.47;;;;;;;;;;5072352;28;20032;-57
2022/08/04 06:29:39;;;;;;;2.58;1.90;;;;;;;;;;5068086;28;20021;-57
2022/08/04 06:32:35;;;;;;;5.18;2.50;;;;;;;;;;5070776;28;20073;-55
2022/08/04 06:35:21;;;;;;;6.55;2.58;;;;;;;;;;5063783;28;20044;-60
2022/08/04 06:38:07;;;;;;;5.45;2.30;;;;;;;;;;5070118;28;20105;-73
2022/08/04 06:40:54;;;;;;;3.78;1.85;;;;;;;;;;5058548;28;20100;-71
2022/08/04 06:43:39;;;;;;;5.30;2.05;;;;;;;;;;5065781;28;20052;-64
2022/08/04 06:46:26;;;;;;;5.55;2.13;;;;;;;;;;5068946;28;20028;-61
2022/08/04 06:49:12;;;;;;;3.90;1.90;;;;;;;;;;5067857;28;20048;-62
2022/08/04 06:51:59;;;;;;;4.10;1.85;;;;;;;;;;5065313;28;20032;-65
2022/08/04 06:54:46;;;;;;;5.50;2.20;;;;;;;;;;5066178;28;20032;-63
2022/08/04 06:57:32;;;;;;;3.63;1.92;;;;;;;;;;5064564;28;20052;-62
2022/08/04 07:00:18;;;;;;;2.80;1.98;;;;;;;;;;5067382;28;20104;-64
2022/08/04 07:03:04;;;;;;;5.25;2.20;;;;;;;;;;5060932;28;20028;-65
2022/08/04 07:05:50;;;;;;;4.68;2.67;;;;;;;;;;5065343;28;20028;-62
2022/08/04 07:08:36;;;;;;;3.30;1.92;;;;;;;;;;5062168;28;20029;-61
2022/08/04 07:11:22;;;;;;;4.65;2.30;;;;;;;;;;5062515;28;20025;-63
2022/08/04 07:14:08;;;;;;;11.55;2.58;;;;;;;;;;5064628;28;20027;-60
2022/08/04 07:16:53;;;;;;;5.88;2.28;;;;;;;;;;5065996;28;20028;-62
2022/08/04 07:19:39;;;;;;;3.42;2.10;;;;;;;;;;5069117;28;20024;-62
2022/08/04 07:22:26;;;;;;;3.50;2.03;;;;;;;;;;5059904;28;20012;-63
2022/08/04 07:25:13;;;;;;;3.58;1.90;;;;;;;;;;5067575;28;20079;-61
2022/08/04 07:27:59;;;;;;;2.30;1.80;;;;;;;;;;5070512;28;20052;-62
2022/08/04 07:30:46;;;;;;;4.35;2.22;;;;;;;;;;5062678;28;20027;-62
2022/08/04 07:33:31;;;;;;;2.50;1.65;;;;;;;;;;5057828;28;20025;-68
2022/08/04 07:36:17;;;;;;;4.18;2.10;;;;;;;;;;5068966;28;20032;-58
2022/08/04 07:39:02;;;;;;;3.55;1.88;;;;;;;;;;5067849;28;20024;-56
2022/08/04 07:41:49;;;;;;;3.40;1.80;;;;;;;;;;5066115;28;20025;-56
2022/08/04 07:44:34;;;;;;;5.57;2.08;;;;;;;;;;5062207;28;20020;-59
2022/08/04 07:47:20;;;;;;;2.60;1.58;;;;;;;;;;5066565;28;20079;-56
2022/08/04 07:50:08;;;;;;;3.53;1.83;;;;;;;;;;5068093;28;20483;-57
2022/08/04 07:52:53;;;;;;;3.50;1.90;;;;;;;;;;5064269;28;20105;-64
2022/08/04 07:55:39;;;;;;;2.80;1.67;;;;;;;;;;5061204;28;20493;-66
2022/08/04 07:58:26;;;;;;;1.92;1.70;;;;;;;;;;5063110;28;20029;-66
2022/08/04 08:01:13;;;;;;;2.50;1.70;;;;;;;;;;5068696;28;20119;-68
2022/08/04 08:03:59;;;;;;;4.95;1.92;;;;;;;;;;5057431;28;20043;-68
2022/08/04 08:06:44;;;;;;;3.17;1.90;;;;;;;;;;5059454;28;20511;-70
2022/08/04 08:09:33;;;;;;;4.22;1.65;;;;;;;;;;5065947;28;20434;-69
2022/08/04 08:12:18;;;;;;;3.87;1.83;;;;;;;;;;5059149;28;20029;-59
2022/08/04 08:15:05;;;;;;;2.22;1.45;;;;;;;;;;5054811;28;20043;-77
2022/08/04 08:17:51;;;;;;;5.20;1.80;;;;;;;;;;5054692;28;20040;-80
2022/08/04 08:20:36;;;;;;;4.20;1.90;;;;;;;;;;5061285;28;20071;-72
2022/08/04 08:23:23;;;;;;;3.00;1.90;;;;;;;;;;5066993;28;20032;-73
2022/08/04 08:26:08;;;;;;;2.28;1.58;;;;;;;;;;5069264;28;20047;-73
2022/08/04 08:28:54;;;;;;;4.70;1.98;;;;;;;;;;5068653;28;20027;-63
2022/08/04 08:31:39;;;;;;;2.47;1.73;;;;;;;;;;5065349;28;20024;-68
2022/08/04 08:34:29;;;;;;;2.63;1.77;;;;;;;;;;5060340;28;20086;-68
2022/08/04 08:37:29;;;;;;;3.28;1.90;;;;;;;;;;5064735;28;20037;-66
2022/08/04 08:40:28;;;;;;;4.05;2.00;;;;;;;;;;5066681;28;20017;-67
2022/08/04 08:43:14;;;;;;;4.78;1.90;;;;;;;;;;5064211;28;20024;-69
2022/08/04 08:46:09;;;;;;;2.90;1.42;;;;;;;;;;5062887;28;20395;-68
2022/08/04 08:49:14;;;;;;;1.90;1.70;;;;;;;;;;5065841;28;20044;-61
2022/08/04 08:52:20;;;;;;;2.33;1.92;;;;;;;;;;5058444;28;20534;-58
2022/08/04 08:55:31;;;;;;;3.88;1.90;;;;;;;;;;5055434;28;20032;-59
2022/08/04 08:58:36;;;;;;;4.63;2.35;;;;;;;;;;5058741;28;20029;-60
2022/08/04 09:01:40;;;;;;;2.63;1.80;;;;;;;;;;5064913;28;20017;-61
2022/08/04 09:04:29;;;;;;;2.00;1.55;;;;;;;;;;5067444;28;20476;-57
2022/08/04 09:07:32;;;;;;;5.10;1.80;;;;;;;;;;5068392;28;20062;-69
2022/08/04 09:10:18;;;;;;;2.10;1.42;;;;;;;;;;5053334;28;20123;-59
2022/08/04 09:13:20;;;;;;;3.78;1.90;;;;;;;;;;5063791;28;20021;-60
2022/08/04 09:16:23;;;;;;;2.85;1.50;;;;;;;;;;5062728;28;20048;-56
2022/08/04 09:19:11;;;;;;;3.75;2.40;;;;;;;;;;5063266;28;20091;-60
2022/08/04 09:21:56;;;;;;;3.35;2.15;;;;;;;;;;5064784;28;20020;-61
2022/08/04 09:24:50;;;;;;;2.33;1.73;;;;;;;;;;5063934;28;20028;-70
2022/08/04 09:27:44;;;;;;;2.70;1.80;;;;;;;;;;5062861;28;20047;-67
2022/08/04 09:30:46;;;;;;;2.30;1.83;;;;;;;;;;5065765;28;20021;-70
2022/08/04 09:33:38;;;;;;;3.90;2.22;;;;;;;;;;5066350;28;20031;-68
2022/08/04 09:36:31;;;;;;;2.03;1.83;;;;;;;;;;5067851;28;20020;-68
2022/08/04 09:39:16;;;;;;;2.97;2.00;;;;;;;;;;5056731;28;20059;-65
2022/08/04 09:42:21;;;;;;;2.83;2.15;;;;;;;;;;5054476;28;20009;-66
2022/08/04 09:45:11;;;;;;;4.03;2.40;;;;;;;;;;5066382;28;20020;-62
2022/08/04 09:48:13;;;;;;;4.18;2.22;;;;;;;;;;5061515;28;20040;-61
2022/08/04 09:50:58;;;;;;;2.38;2.05;;;;;;;;;;5063390;28;20052;-60
2022/08/04 09:54:04;;;;;;;4.80;2.22;;;;;;;;;;5062905;28;20053;-61
2022/08/04 09:56:53;;;;;;;1.90;1.70;;;;;;;;;;5063774;28;20028;-60
2022/08/04 09:59:50;;;;;;;3.10;2.00;;;;;;;;;;5050679;28;20021;-58
2022/08/04 10:02:37;;;;;;;3.30;2.25;;;;;;;;;;5067138;28;20024;-61
2022/08/04 10:05:40;;;;;;;3.13;2.05;;;;;;;;;;5064076;28;20056;-55
2022/08/04 10:08:35;;;;;;;2.47;2.17;;;;;;;;;;5060469;28;20113;-56
2022/08/04 10:11:24;;;;;;;3.42;1.98;;;;;;;;;;5067438;28;20020;-61
2022/08/04 10:14:23;;;;;;;2.05;1.77;;;;;;;;;;5056209;28;20057;-56
2022/08/04 10:17:27;;;;;;;1.90;1.75;;;;;;;;;;5071135;28;20079;-53
2022/08/04 10:20:19;;;;;;;3.25;2.25;;;;;;;;;;5056184;28;20020;-60
2022/08/04 10:23:08;;;;;;;5.18;1.85;;;;;;;;;;5077667;28;20031;-60
2022/08/04 10:25:56;;;;;;;4.13;2.03;;;;;;;;;;5067396;28;20400;-60
2022/08/04 10:29:05;;;;;;;3.42;1.80;;;;;;;;;;5071155;28;20502;-60
2022/08/04 10:31:57;;;;;;;3.28;2.45;;;;;;;;;;5045851;28;20040;-62
2022/08/04 10:35:07;;;;;;;8.85;3.75;;;;;;;;;;5062236;28;20025;-64
2022/08/04 10:37:58;;;;;;;9.40;3.28;;;;;;;;;;5064635;28;20170;-73
2022/08/04 10:40:44;;;;;;;7.82;3.22;;;;;;;;;;5069300;28;20013;-69
2022/08/04 10:43:29;;;;;;;5.75;2.95;;;;;;;;;;5066314;28;20074;-68
2022/08/04 10:46:20;;;;;;;8.90;3.30;;;;;;;;;;5056724;28;20115;-68
2022/08/04 10:49:13;;;;;;;3.95;2.03;;;;;;;;;;5064510;28;20044;-72
2022/08/04 10:52:02;;;;;;;5.50;2.40;;;;;;;;;;5068048;28;20059;-68
2022/08/04 10:54:56;;;;;;;3.60;2.08;;;;;;;;;;5056826;28;20024;-68
2022/08/04 10:57:47;;;;;;;4.90;1.88;;;;;;;;;;5065863;28;20108;-70
2022/08/04 11:00:35;;;;;;;2.35;1.95;;;;;;;;;;5066707;28;20342;-59
2022/08/04 11:03:23;;;;;;;4.65;1.52;;;;;;;;;;5060008;28;20036;-61
2022/08/04 11:06:09;;;;;;;3.50;1.87;;;;;;;;;;5069032;28;20024;-59
2022/08/04 11:08:55;;;;;;;3.17;1.90;;;;;;;;;;5065094;28;20028;-59
2022/08/04 11:11:40;;;;;;;2.30;1.98;;;;;;;;;;5060592;28;20039;-59
2022/08/04 11:14:30;;;;;;;1.77;1.63;;;;;;;;;;5064163;28;20020;-60
2022/08/04 11:17:21;;;;;;;2.50;2.10;;;;;;;;;;5069761;28;20082;-67
2022/08/04 11:20:15;;;;;;;4.22;2.13;;;;;;;;;;5059778;28;20345;-67
2022/08/04 11:23:08;;;;;;;3.10;2.05;;;;;;;;;;5070598;28;20024;-69
2022/08/04 11:26:05;;;;;;;1.70;1.60;;;;;;;;;;5071377;28;20033;-69
2022/08/04 11:28:57;;;;;;;2.85;2.10;;;;;;;;;;5062939;28;20078;-67
2022/08/04 11:31:46;;;;;;;1.95;1.80;;;;;;;;;;5065330;28;20028;-66
2022/08/04 11:34:31;;;;;;;;;;;;;;;;;;5070412;28;20028;-67
2022/08/04 11:37:33;;;;;;;2.63;1.73;;;;;;;;;;5067385;28;20010;-69
2022/08/04 11:40:22;;;;;;;2.15;1.70;;;;;;;;;;5063730;28;20408;-68
2022/08/04 11:43:43;;;;;;;2.80;2.08;;;;;;;;;;5067537;28;20039;-68
2022/08/04 11:46:36;;;;;;;2.38;1.90;;;;;;;;;;5004867;28;20481;-69
2022/08/04 11:49:32;;;;;;;2.10;1.90;;;;;;;;;;5065057;28;20051;-71
2022/08/04 11:52:19;;;;;;;3.70;1.98;;;;;;;;;;5062912;28;20100;-70
2022/08/04 11:55:06;;;;;;;5.47;2.03;;;;;;;;;;5065444;28;20035;-70
2022/08/04 11:57:51;;;;;;;3.70;1.90;;;;;;;;;;5058623;28;20042;-76
2022/08/04 12:00:41;;;;;;;3.97;1.88;;;;;;;;;;5061844;28;20021;-68
2022/08/04 12:03:49;;;;;;;3.33;2.45;;;;;;;;;;5059548;28;20032;-70
2022/08/04 12:06:41;;;;;;;3.67;1.70;;;;;;;;;;5062305;28;20054;-71
2022/08/04 12:09:33;;;;;;;3.15;1.98;;;;;;;;;;5064768;28;20020;-69
2022/08/04 12:12:19;;;;;;;3.45;1.90;;;;;;;;;;5065251;28;20037;-60
2022/08/04 12:15:23;;;;;;;3.90;1.85;;;;;;;;;;5057935;28;20099;-71
2022/08/04 12:18:48;;;;;;;3.78;1.90;;;;;;;;;;5067509;28;20040;-71
2022/08/04 12:21:36;;;;;;;4.60;2.33;;;;;;;;;;4988061;28;20113;-71
2022/08/04 12:24:42;;;;;;;7.80;2.55;;;;;;;;;;4990760;28;20022;-69
2022/08/04 12:27:33;;;;;;;2.30;1.92;;;;;;;;;;5066454;28;20415;-70
2022/08/04 12:30:19;;;;;;;2.60;1.70;;;;;;;;;;5066337;28;20020;-66
2022/08/04 12:33:09;;;;;;;4.82;2.13;;;;;;;;;;5068112;28;20116;-61
2022/08/04 12:36:01;;;;;;;3.40;2.20;;;;;;;;;;5058343;28;20039;-60
2022/08/04 12:38:48;;;;;;;3.55;2.00;;;;;;;;;;5064410;28;20124;-61
2022/08/04 12:41:57;;;;;;;2.70;2.03;;;;;;;;;;5065067;28;20447;-61
2022/08/04 12:44:44;;;;;;;4.05;2.00;;;;;;;;;;5039153;28;20063;-60
2022/08/04 12:47:29;;;;;;;3.20;1.95;;;;;;;;;;5063758;28;20115;-70
2022/08/04 12:50:17;;;;;;;3.13;2.13;;;;;;;;;;5063888;28;20541;-72
2022/08/04 12:53:09;;;;;;;3.67;2.20;;;;;;;;;;5059411;28;20055;-72
2022/08/04 12:55:55;;;;;;;4.28;2.28;;;;;;;;;;5063924;28;20510;-73
2022/08/04 12:58:42;;;;;;;5.00;2.28;;;;;;;;;;5061687;28;20044;-72
2022/08/04 13:01:28;;;;;;;4.13;2.03;;;;;;;;;;5060357;28;20032;-73
2022/08/04 13:04:19;;;;;;;4.78;1.80;;;;;;;;;;5063053;28;20024;-68
2022/08/04 13:07:08;;;;;;;2.83;2.10;;;;;;;;;;5058863;28;20021;-61
2022/08/04 13:09:55;;;;;;;3.58;1.90;;;;;;;;;;5067656;28;20048;-62
2022/08/04 13:12:43;;;;;;;2.67;2.03;;;;;;;;;;5061747;28;20035;-62
2022/08/04 13:15:29;;;;;;;1.92;1.70;;;;;;;;;;5062116;28;20039;-63
2022/08/04 13:18:15;;;;;;;3.45;2.20;;;;;;;;;;5067647;28;20479;-61
2022/08/04 13:21:12;;;;;;;2.95;1.90;;;;;;;;;;5069593;28;20024;-63
2022/08/04 13:24:02;;;;;;;2.50;2.00;;;;;;;;;;5067740;28;20047;-66
2022/08/04 13:26:51;;;;;;;3.15;2.22;;;;;;;;;;5065848;28;20025;-60
2022/08/04 13:29:42;;;;;;;3.60;2.60;;;;;;;;;;5054914;28;20035;-59
2022/08/04 13:32:28;;;;;;;2.78;2.17;;;;;;;;;;5067399;28;20056;-59
2022/08/04 13:35:14;;;;;;;4.75;2.53;;;;;;;;;;5068631;28;20032;-60
2022/08/04 13:38:00;;;;;;;4.00;1.70;;;;;;;;;;5062184;28;20438;-60
2022/08/04 13:40:47;;;;;;;3.40;2.10;;;;;;;;;;5064723;28;20097;-59
2022/08/04 13:43:33;;;;;;;2.22;1.77;;;;;;;;;;5062048;28;20439;-59
2022/08/04 13:46:22;;;;;;;2.50;2.17;;;;;;;;;;5060168;28;20031;-69
2022/08/04 13:49:08;;;;;;;;;;;;;;;;;;5065100;28;20099;-70
2022/08/04 13:51:55;;;;;;;4.10;2.25;;;;;;;;;;5060311;28;20409;-71
2022/08/04 13:54:42;;;;;;;2.75;1.88;;;;;;;;;;5060478;28;20103;-71
2022/08/04 13:57:29;;;;;;;3.45;2.10;;;;;;;;;;5061178;28;20079;-71
2022/08/04 14:00:15;;;;;;;5.70;2.25;;;;;;;;;;5061682;28;20060;-62
2022/08/04 14:03:03;;;;;;;3.78;2.00;;;;;;;;;;5066751;28;20490;-62
2022/08/04 14:06:06;;;;;;;4.25;2.30;;;;;;;;;;5065395;28;20032;-64
2022/08/04 14:08:56;;;;;;;3.38;2.58;;;;;;;;;;5070534;28;20371;-63
2022/08/04 14:11:43;;;;;;;3.92;2.53;;;;;;;;;;5058901;28;20067;-62
2022/08/04 14:14:30;;;;;;;3.45;2.40;;;;;;;;;;5066198;28;20037;-62
2022/08/04 14:17:16;;;;;;;4.25;2.30;;;;;;;;;;5069860;28;20040;-61
2022/08/04 14:20:03;;;;;;;2.45;2.25;;;;;;;;;;5069621;28;20032;-61
2022/08/04 14:22:49;;;;;;;2.75;2.00;;;;;;;;;;5072733;28;20037;-62
2022/08/04 14:25:34;;;;;;;3.67;2.03;;;;;;;;;;5071845;28;20020;-61
2022/08/04 14:28:30;;;;;;;2.97;2.20;;;;;;;;;;5070467;28;20338;-66
2022/08/04 14:31:17;;;;;;;4.85;2.35;;;;;;;;;;5072038;28;20021;-63
2022/08/04 14:34:02;;;;;;;2.45;1.83;;;;;;;;;;5065884;28;20066;-62
2022/08/04 14:36:48;;;;;;;3.72;2.20;;;;;;;;;;5070719;28;20036;-60
2022/08/04 14:39:53;;;;;;;3.17;2.20;;;;;;;;;;5066651;28;20562;-61
2022/08/04 14:42:43;;;;;;;5.45;2.60;;;;;;;;;;5070369;28;20024;-67
2022/08/04 14:45:30;;;;;;;3.35;2.40;;;;;;;;;;5069708;28;20043;-66
2022/08/04 14:48:16;;;;;;;4.10;2.40;;;;;;;;;;5069229;28;20049;-66
2022/08/04 14:51:02;;;;;;;3.80;2.50;;;;;;;;;;5068331;28;20031;-66
2022/08/04 14:53:48;;;;;;;2.40;2.17;;;;;;;;;;5070302;28;20016;-67
2022/08/04 14:56:33;;;;;;;2.20;2.00;;;;;;;;;;5070317;28;20452;-64
2022/08/04 14:59:20;;;;;;;3.22;2.08;;;;;;;;;;5069728;28;20479;-69
2022/08/04 15:02:05;;;;;;;3.40;1.98;;;;;;;;;;5069814;28;20028;-72
2022/08/04 15:04:51;;;;;;;3.55;2.13;;;;;;;;;;5060437;28;20039;-72
2022/08/04 15:07:37;;;;;;;4.55;2.30;;;;;;;;;;5068387;28;20498;-73
2022/08/04 15:10:23;;;;;;;3.70;2.72;;;;;;;;;;5071271;28;20017;-72
2022/08/04 15:13:11;;;;;;;3.65;2.08;;;;;;;;;;5059229;28;20029;-82
2022/08/04 15:15:56;;;;;;;3.97;2.05;;;;;;;;;;5067095;28;20032;-79
2022/08/04 15:18:42;;;;;;;3.95;2.45;;;;;;;;;;5070146;28;20041;-74
2022/08/04 15:21:28;;;;;;;3.85;2.30;;;;;;;;;;5066293;28;20024;-77
2022/08/04 15:24:14;;;;;;;4.10;2.47;;;;;;;;;;5071032;28;20028;-74
2022/08/04 15:27:01;;;;;;;3.30;2.00;;;;;;;;;;5071125;28;20021;-75
2022/08/04 15:29:49;;;;;;;2.78;2.00;;;;;;;;;;5070003;28;20024;-74
2022/08/04 15:32:37;;;;;;;3.05;2.10;;;;;;;;;;5057958;28;20586;-81
2022/08/04 15:35:23;;;;;;;2.45;2.00;;;;;;;;;;5070105;28;20438;-80
2022/08/04 15:38:15;;;;;;;3.72;2.20;;;;;;;;;;5069379;28;20115;-79
2022/08/04 15:41:05;;;;;;;2.22;2.03;;;;;;;;;;5059066;28;20475;-78
2022/08/04 15:43:54;;;;;;;6.20;3.13;;;;;;;;;;5067751;28;20057;-78
2022/08/04 15:46:46;;;;;;;2.65;2.15;;;;;;;;;;5064264;28;20486;-79
2022/08/04 15:49:32;;;;;;;3.33;2.53;;;;;;;;;;5071446;28;20044;-79
2022/08/04 15:52:18;;;;;;;4.90;2.10;;;;;;;;;;5070293;28;20024;-84
2022/08/04 15:55:26;;;;;;;3.60;2.30;;;;;;;;;;5070392;28;20480;-80
2022/08/04 15:58:12;;;;;;;4.25;2.03;;;;;;;;;;5061513;28;20036;-80
2022/08/04 16:00:58;;;;;;;7.00;2.20;;;;;;;;;;5071392;28;20024;-79
2022/08/04 16:03:45;;;;;;;2.78;2.15;;;;;;;;;;5069931;28;20032;-79
2022/08/04 16:06:36;;;;;;;2.25;1.75;;;;;;;;;;5064318;28;20024;-79
2022/08/04 16:09:23;;;;;;;3.05;2.10;;;;;;;;;;5057947;28;20035;-78
2022/08/04 16:12:14;;;;;;;3.70;2.13;;;;;;;;;;5066684;28;20035;-72
2022/08/04 16:15:25;;;;;;;4.20;2.38;;;;;;;;;;5070390;28;20086;-71
2022/08/04 16:18:19;;;;;;;5.55;2.00;;;;;;;;;;5067266;28;20127;-72
2022/08/04 16:21:19;;;;;;;7.20;2.03;;;;;;;;;;5062371;28;20021;-71
2022/08/04 16:24:14;;;;;;;7.10;2.33;;;;;;;;;;5058646;28;20459;-71
2022/08/04 16:27:01;;;;;;;3.42;2.38;;;;;;;;;;5069021;28;20099;-78
2022/08/04 16:29:46;;;;;;;3.90;2.28;;;;;;;;;;5071303;28;20376;-74
2022/08/04 16:32:40;;;;;;;3.13;2.10;;;;;;;;;;5069122;28;20045;-74
2022/08/04 16:35:27;;;;;;;3.22;2.22;;;;;;;;;;5068356;28;20020;-74
2022/08/04 16:38:13;;;;;;;3.42;2.10;;;;;;;;;;5062202;28;20075;-74
2022/08/04 16:41:00;;;;;;;4.80;2.80;;;;;;;;;;5067253;28;20048;-73
2022/08/04 16:43:45;;;;;;;3.55;2.00;;;;;;;;;;5068434;28;20432;-73
2022/08/04 16:46:41;;;;;;;2.97;2.40;;;;;;;;;;5070270;28;20020;-79
2022/08/04 16:49:28;;;;;;;3.60;2.15;;;;;;;;;;5062968;28;20045;-74
2022/08/04 16:52:13;;;;;;;7.57;2.25;;;;;;;;;;5076711;28;20048;-73
2022/08/04 16:54:59;;;;;;;2.58;2.00;;;;;;;;;;5070495;28;20032;-73
2022/08/04 16:57:45;;;;;;;5.50;2.60;;;;;;;;;;5070187;28;20028;-73
2022/08/04 17:00:35;;;;;;;2.97;2.17;;;;;;;;;;5059246;28;20122;-72
2022/08/04 17:03:21;;;;;;;5.65;2.30;;;;;;;;;;5065418;28;20029;-72
2022/08/04 17:06:11;;;;;;;4.05;2.30;;;;;;;;;;5070139;28;20012;-73
2022/08/04 17:09:02;;;;;;;3.30;1.83;;;;;;;;;;5070692;28;20036;-81